createdAt,value
2022-08-22T00:00:18.943Z,2.10
2022-08-22T00:02:46.876Z,1.50
2022-08-22T00:02:55.263Z,1.70
2022-08-22T00:02:59.073Z,2.03
2022-08-22T00:05:45.344Z,2.15
2022-08-22T00:08:13.527Z,1.85
2022-08-22T00:10:49.360Z,1.92
2022-08-22T00:13:21.577Z,2.15
2022-08-22T00:15:51.312Z,2.38
2022-08-22T00:18:19.382Z,2.30
2022-08-22T00:20:49.805Z,2.05
2022-08-22T00:23:18.228Z,1.88
2022-08-22T00:25:48.587Z,2.42
2022-08-22T00:28:16.819Z,2.40
2022-08-22T00:30:46.452Z,2.20
2022-08-22T00:33:16.034Z,2.10
2022-08-22T00:35:45.233Z,2.22
2022-08-22T00:38:15.656Z,2.45
2022-08-22T00:40:46.185Z,1.92
2022-08-22T00:43:19.897Z,2.53
2022-08-22T00:45:55.904Z,2.22
2022-08-22T00:48:36.386Z,2.63
2022-08-22T00:51:33.977Z,1.98
2022-08-22T00:54:04.509Z,2.28
2022-08-22T00:56:53.067Z,2.10
2022-08-22T00:59:27.840Z,2.00
2022-08-22T01:01:57.571Z,2.00
2022-08-22T01:04:33.824Z,2.45
2022-08-22T01:07:04.552Z,2.53
2022-08-22T01:09:37.396Z,2.13
2022-08-22T01:12:09.467Z,2.42
2022-08-22T01:14:38.958Z,2.20
2022-08-22T01:17:17.782Z,2.38
2022-08-22T01:19:58.623Z,2.25
2022-08-22T01:22:35.713Z,1.92
2022-08-22T01:25:26.111Z,2.28
2022-08-22T01:28:12.536Z,2.13
2022-08-22T01:30:49.297Z,1.98
2022-08-22T01:33:35.399Z,2.17
2022-08-22T01:36:20.464Z,2.25
2022-08-22T01:39:02.338Z,2.40
2022-08-22T01:41:34.697Z,2.00
2022-08-22T01:44:16.502Z,2.33
2022-08-22T01:46:49.328Z,2.33
2022-08-22T01:49:17.489Z,2.38
2022-08-22T01:51:46.396Z,2.00
2022-08-22T01:54:15.436Z,2.10
2022-08-22T01:56:43.495Z,2.50
2022-08-22T01:59:11.917Z,2.60
2022-08-22T02:01:43.283Z,2.25
2022-08-22T02:04:11.111Z,2.25
2022-08-22T02:06:41.134Z,2.10
2022-08-22T02:09:10.386Z,2.17
2022-08-22T02:11:44.617Z,2.40
2022-08-22T02:14:17.894Z,2.42
2022-08-22T02:16:45.554Z,1.77
2022-08-22T02:19:26.656Z,2.33
2022-08-22T02:21:55.726Z,2.58
2022-08-22T02:24:25.531Z,2.40
2022-08-22T02:27:04.068Z,2.97
2022-08-22T02:29:33.126Z,2.45
2022-08-22T02:32:01.805Z,2.72
2022-08-22T02:34:31.001Z,2.53
2022-08-22T02:37:03.623Z,2.22
2022-08-22T02:39:33.319Z,2.35
2022-08-22T02:42:03.603Z,2.70
2022-08-22T02:44:31.894Z,2.47
2022-08-22T02:47:02.066Z,2.33
2022-08-22T02:49:32.087Z,2.25
2022-08-22T02:52:03.606Z,2.10
2022-08-22T02:54:31.867Z,2.50
2022-08-22T02:57:01.499Z,2.80
2022-08-22T02:59:34.427Z,3.25
2022-08-22T03:02:16.688Z,2.55
2022-08-22T03:04:47.902Z,2.42
2022-08-22T03:07:24.157Z,2.47
2022-08-22T03:09:52.781Z,2.83
2022-08-22T03:12:22.583Z,2.45
2022-08-22T03:14:55.836Z,2.40
2022-08-22T03:17:24.874Z,2.92
2022-08-22T03:19:54.753Z,2.55
2022-08-22T03:22:23.384Z,1.95
2022-08-22T03:24:51.733Z,2.22
2022-08-22T03:27:32.712Z,2.50
2022-08-22T03:30:03.536Z,2.78
2022-08-22T03:32:45.823Z,2.20
2022-08-22T03:35:13.379Z,2.53
2022-08-22T03:37:41.749Z,2.85
2022-08-22T03:40:21.209Z,2.95
2022-08-22T03:43:18.523Z,2.35
2022-08-22T03:46:17.830Z,2.80
2022-08-22T03:49:00.995Z,2.25
2022-08-22T03:51:42.123Z,2.40
2022-08-22T03:54:23.287Z,2.55
2022-08-22T03:57:08.313Z,2.42
2022-08-22T03:59:42.757Z,2.38
2022-08-22T04:02:35.824Z,2.63
2022-08-22T04:05:20.003Z,2.38
2022-08-22T04:07:57.493Z,2.40
2022-08-22T04:10:29.666Z,2.53
2022-08-22T04:13:01.324Z,2.58
2022-08-22T04:15:33.480Z,2.78
2022-08-22T04:18:08.908Z,2.53
2022-08-22T04:20:41.485Z,2.88
2022-08-22T04:23:23.750Z,2.60
2022-08-22T04:25:53.678Z,2.63
2022-08-22T04:28:21.965Z,2.75
2022-08-22T04:30:52.881Z,2.60
2022-08-22T04:33:20.673Z,2.70
2022-08-22T04:35:52.690Z,2.50
2022-08-22T04:38:20.973Z,2.78
2022-08-22T04:40:50.166Z,2.65
2022-08-22T04:43:19.387Z,2.35
2022-08-22T04:45:47.500Z,2.40
2022-08-22T04:48:16.996Z,2.80
2022-08-22T04:50:44.896Z,2.42
2022-08-22T04:53:19.314Z,2.47
2022-08-22T04:55:49.715Z,2.17
2022-08-22T04:58:23.130Z,2.40
2022-08-22T05:00:53.191Z,2.28
2022-08-22T05:03:20.573Z,2.60
2022-08-22T05:05:47.943Z,2.53
2022-08-22T05:08:17.392Z,2.65
2022-08-22T05:10:46.489Z,2.85
2022-08-22T05:13:16.226Z,2.47
2022-08-22T05:15:45.094Z,2.33
2022-08-22T05:18:13.823Z,2.42
2022-08-22T05:20:41.254Z,2.55
2022-08-22T05:23:17.597Z,2.30
2022-08-22T05:25:45.308Z,2.50
2022-08-22T05:28:14.415Z,2.60
2022-08-22T05:30:41.788Z,2.38
2022-08-22T05:33:14.112Z,2.40
2022-08-22T05:35:44.957Z,2.25
2022-08-22T05:38:16.902Z,2.30
2022-08-22T05:40:44.471Z,2.40
2022-08-22T05:43:12.134Z,2.72
2022-08-22T05:45:39.660Z,2.70
2022-08-22T05:48:07.807Z,2.45
2022-08-22T05:50:37.004Z,2.60
2022-08-22T05:53:06.432Z,2.72
2022-08-22T05:55:34.213Z,2.47
2022-08-22T05:58:10.751Z,2.67
2022-08-22T06:00:38.699Z,2.40
2022-08-22T06:03:09.035Z,2.63
2022-08-22T06:05:38.750Z,2.47
2022-08-22T06:08:07.933Z,2.60
2022-08-22T06:10:37.775Z,3.20
2022-08-22T06:13:11.370Z,3.13
2022-08-22T06:15:40.990Z,2.80
2022-08-22T06:18:10.248Z,2.55
2022-08-22T06:20:40.031Z,2.42
2022-08-22T06:23:07.705Z,2.30
2022-08-22T06:25:35.284Z,2.53
2022-08-22T06:28:03.638Z,2.83
2022-08-22T06:30:31.619Z,3.13
2022-08-22T06:33:01.081Z,2.90
2022-08-22T06:35:29.450Z,3.40
2022-08-22T06:37:58.903Z,3.40
2022-08-22T06:40:26.474Z,2.95
2022-08-22T06:42:54.261Z,3.08
2022-08-22T06:45:22.917Z,3.55
2022-08-22T06:47:52.199Z,2.88
2022-08-22T06:50:21.958Z,3.08
2022-08-22T06:52:50.978Z,3.17
2022-08-22T06:55:19.701Z,3.13
2022-08-22T06:57:53.555Z,3.25
2022-08-22T07:00:20.945Z,3.17
2022-08-22T07:02:49.219Z,3.10
2022-08-22T07:05:17.669Z,3.42
2022-08-22T07:07:45.137Z,3.50
2022-08-22T07:10:12.750Z,2.70
2022-08-22T07:12:46.433Z,2.72
2022-08-22T07:15:18.911Z,3.22
2022-08-22T07:17:50.527Z,3.42
2022-08-22T07:20:22.352Z,3.50
2022-08-22T07:22:54.060Z,3.47
2022-08-22T07:25:24.298Z,3.67
2022-08-22T07:28:00.129Z,3.95
2022-08-22T07:30:28.690Z,3.50
2022-08-22T07:32:56.797Z,3.70
2022-08-22T07:35:53.025Z,4.15
2022-08-22T07:38:22.450Z,3.97
2022-08-22T07:40:51.484Z,3.90
2022-08-22T07:43:22.851Z,4.05
2022-08-22T07:45:50.862Z,3.50
2022-08-22T07:48:26.067Z,3.80
2022-08-22T07:51:01.505Z,4.22
2022-08-22T07:53:35.584Z,4.03
2022-08-22T07:56:03.221Z,3.53
2022-08-22T07:58:33.801Z,4.18
2022-08-22T08:01:01.254Z,3.85
2022-08-22T08:03:29.508Z,3.60
2022-08-22T08:05:56.850Z,3.90
2022-08-22T08:08:25.693Z,3.45
2022-08-22T08:10:54.380Z,4.15
2022-08-22T08:13:22.309Z,3.42
2022-08-22T08:15:51.150Z,3.33
2022-08-22T08:18:21.726Z,3.22
2022-08-22T08:20:50.584Z,3.80
2022-08-22T08:23:23.508Z,3.55
2022-08-22T08:25:55.831Z,3.35
2022-08-22T08:28:34.186Z,3.35
2022-08-22T08:31:08.159Z,3.47
2022-08-22T08:33:36.170Z,2.90
2022-08-22T08:36:04.687Z,3.28
2022-08-22T08:38:32.664Z,3.47
2022-08-22T08:41:04.253Z,3.20
2022-08-22T08:43:36.438Z,3.00
2022-08-22T08:46:34.503Z,2.80
2022-08-22T08:49:16.279Z,3.05
2022-08-22T08:51:50.843Z,3.10
2022-08-22T08:54:22.712Z,2.90
2022-08-22T08:56:54.224Z,2.90
2022-08-22T08:59:26.491Z,3.15
2022-08-22T09:02:09.582Z,2.45
2022-08-22T09:04:59.929Z,2.85
2022-08-22T09:07:35.115Z,2.90
2022-08-22T09:10:16.425Z,2.50
2022-08-22T09:12:54.338Z,3.08
2022-08-22T09:15:40.196Z,2.90
2022-08-22T09:18:26.904Z,2.72
2022-08-22T09:21:31.297Z,2.08
2022-08-22T09:24:17.459Z,2.53
2022-08-22T09:26:48.812Z,2.40
2022-08-22T09:29:32.939Z,3.00
2022-08-22T09:32:04.383Z,2.67
2022-08-22T09:34:33.551Z,2.20
2022-08-22T09:37:06.399Z,2.58
2022-08-22T09:39:35.522Z,2.58
2022-08-22T09:42:06.805Z,2.33
2022-08-22T09:44:39.717Z,2.88
2022-08-22T09:47:08.692Z,2.20
2022-08-22T09:49:41.014Z,2.60
2022-08-22T09:52:15.161Z,2.08
2022-08-22T09:54:44.673Z,2.33
2022-08-22T09:57:24.737Z,2.63
2022-08-22T09:59:58.137Z,3.00
2022-08-22T10:02:28.842Z,2.53
2022-08-22T10:04:58.368Z,2.83
2022-08-22T10:07:36.539Z,2.42
2022-08-22T10:10:06.881Z,2.28
2022-08-22T10:12:37.263Z,2.50
2022-08-22T10:15:07.805Z,2.75
2022-08-22T10:17:36.852Z,2.53
2022-08-22T10:20:10.676Z,3.03
2022-08-22T10:22:40.271Z,2.58
2022-08-22T10:25:25.721Z,2.63
2022-08-22T10:28:07.156Z,2.70
2022-08-22T10:30:40.547Z,2.67
2022-08-22T10:33:12.028Z,3.00
2022-08-22T10:35:40.690Z,2.90
2022-08-22T10:38:10.585Z,2.78
2022-08-22T10:40:38.875Z,2.78
2022-08-22T10:43:09.587Z,2.85
2022-08-22T10:45:39.667Z,2.70
2022-08-22T10:48:25.401Z,3.28
2022-08-22T10:50:53.912Z,3.50
2022-08-22T10:53:33.139Z,3.42
2022-08-22T10:56:08.623Z,2.60
2022-08-22T10:58:37.590Z,2.92
2022-08-22T11:01:37.980Z,2.28
2022-08-22T11:03:57.812Z,2.70
2022-08-22T11:06:26.296Z,2.72
2022-08-22T11:09:00.311Z,2.28
2022-08-22T11:11:41.110Z,2.50
2022-08-22T11:14:15.690Z,2.05
2022-08-22T11:16:46.771Z,2.53
2022-08-22T11:19:15.943Z,2.10
2022-08-22T11:21:46.814Z,2.03
2022-08-22T11:24:34.564Z,2.97
2022-08-22T11:27:04.129Z,2.33
2022-08-22T11:29:39.601Z,2.92
2022-08-22T11:32:12.971Z,3.00
2022-08-22T11:34:44.916Z,2.53
2022-08-22T11:37:17.353Z,2.75
2022-08-22T11:39:47.179Z,2.63
2022-08-22T11:42:15.567Z,2.38
2022-08-22T11:44:52.318Z,2.50
2022-08-22T11:47:20.363Z,2.63
2022-08-22T11:49:56.636Z,2.13
2022-08-22T11:52:25.878Z,2.10
2022-08-22T11:54:56.351Z,2.13
2022-08-22T11:57:26.944Z,2.22
2022-08-22T12:00:00.740Z,2.28
2022-08-22T12:02:29.868Z,2.35
2022-08-22T12:04:59.298Z,2.22
2022-08-22T12:07:27.643Z,2.03
2022-08-22T12:09:56.316Z,2.63
2022-08-22T12:12:27.570Z,2.28
2022-08-22T12:15:00.279Z,2.13
2022-08-22T12:17:55.973Z,2.08
2022-08-22T12:20:36.552Z,2.55
2022-08-22T12:23:17.122Z,2.30
2022-08-22T12:25:49.490Z,1.85
2022-08-22T12:28:20.584Z,2.03
2022-08-22T12:30:54.659Z,2.35
2022-08-22T12:33:36.019Z,1.90
2022-08-22T12:36:06.135Z,1.90
2022-08-22T12:38:40.320Z,2.20
2022-08-22T12:41:28.408Z,2.05
2022-08-22T12:44:03.551Z,2.10
2022-08-22T12:46:37.680Z,1.63
2022-08-22T12:49:19.310Z,2.38
2022-08-22T12:51:51.966Z,1.90
2022-08-22T12:54:42.113Z,2.13
2022-08-22T12:57:23.834Z,2.00
2022-08-22T12:59:52.959Z,1.90
2022-08-22T13:02:25.179Z,2.05
2022-08-22T13:04:53.669Z,2.10
2022-08-22T13:07:23.341Z,2.05
2022-08-22T13:09:52.308Z,2.20
2022-08-22T13:12:21.911Z,2.15
2022-08-22T13:14:50.406Z,2.08
2022-08-22T13:17:24.647Z,2.15
2022-08-22T13:20:09.676Z,1.90
2022-08-22T13:22:39.248Z,2.03
2022-08-22T13:25:08.541Z,2.10
2022-08-22T13:27:38.145Z,2.30
2022-08-22T13:30:18.847Z,2.00
2022-08-22T13:32:46.576Z,2.50
2022-08-22T13:35:24.488Z,2.42
2022-08-22T13:37:52.884Z,1.90
2022-08-22T13:40:22.916Z,2.28
2022-08-22T13:42:54.181Z,2.17
2022-08-22T13:45:22.697Z,2.00
2022-08-22T13:47:51.197Z,2.00
2022-08-22T13:50:20.621Z,2.30
2022-08-22T13:52:49.278Z,2.20
2022-08-22T13:55:25.168Z,2.10
2022-08-22T13:57:59.255Z,1.92
2022-08-22T14:00:57.248Z,2.20
2022-08-22T14:03:26.165Z,2.15
2022-08-22T14:06:06.169Z,2.25
2022-08-22T14:08:45.953Z,2.22
2022-08-22T14:11:13.958Z,2.10
2022-08-22T14:13:42.792Z,2.28
2022-08-22T14:16:11.283Z,2.30
2022-08-22T14:18:45.581Z,2.05
2022-08-22T14:21:19.922Z,2.33
2022-08-22T14:23:47.259Z,2.47
2022-08-22T14:26:23.517Z,2.25
2022-08-22T14:29:00.751Z,1.98
2022-08-22T14:31:28.139Z,2.10
2022-08-22T14:33:57.122Z,1.85
2022-08-22T14:36:26.232Z,1.90
2022-08-22T14:38:56.302Z,2.03
2022-08-22T14:41:25.545Z,1.83
2022-08-22T14:43:53.970Z,1.80
2022-08-22T14:46:23.435Z,1.90
2022-08-22T14:49:05.169Z,1.77
2022-08-22T14:51:33.876Z,1.90
2022-08-22T14:54:09.509Z,2.33
2022-08-22T14:56:41.666Z,1.75
2022-08-22T14:59:09.773Z,2.17
2022-08-22T15:01:53.146Z,1.90
2022-08-22T15:04:22.574Z,2.15
2022-08-22T15:06:54.014Z,1.60
2022-08-22T15:09:27.659Z,2.17
2022-08-22T15:11:55.023Z,2.38
2022-08-22T15:14:24.516Z,1.58
2022-08-22T15:16:52.489Z,1.83
2022-08-22T15:19:22.392Z,2.50
2022-08-22T15:21:49.753Z,2.28
2022-08-22T15:24:18.480Z,2.35
2022-08-22T15:26:50.183Z,2.30
2022-08-22T15:29:18.612Z,1.92
2022-08-22T15:31:47.759Z,2.30
2022-08-22T15:34:22.141Z,2.28
2022-08-22T15:37:00.709Z,2.33
2022-08-22T15:39:38.019Z,2.00
2022-08-22T15:42:05.656Z,2.00
2022-08-22T15:44:33.903Z,2.40
2022-08-22T15:47:05.918Z,1.95
2022-08-22T15:49:39.522Z,2.63
2022-08-22T15:52:09.079Z,2.42
2022-08-22T15:54:53.973Z,2.40
2022-08-22T15:57:24.773Z,2.10
2022-08-22T15:59:54.607Z,2.05
2022-08-22T16:02:24.040Z,1.90
2022-08-22T16:04:52.137Z,2.10
2022-08-22T16:07:34.422Z,2.13
2022-08-22T16:10:01.880Z,2.30
2022-08-22T16:12:31.794Z,2.05
2022-08-22T16:14:59.528Z,2.10
2022-08-22T16:17:40.513Z,2.10
2022-08-22T16:20:26.442Z,2.22
2022-08-22T16:23:09.004Z,2.30
2022-08-22T16:25:55.073Z,1.88
2022-08-22T16:28:36.367Z,1.98
2022-08-22T16:31:16.373Z,2.15
2022-08-22T16:33:43.735Z,2.03
2022-08-22T16:36:19.877Z,2.15
2022-08-22T16:38:47.870Z,2.65
2022-08-22T16:41:32.121Z,2.03
2022-08-22T16:44:32.999Z,2.05
2022-08-22T16:47:09.129Z,2.10
2022-08-22T16:49:36.862Z,2.58
2022-08-22T16:52:22.700Z,2.22
2022-08-22T16:54:51.187Z,2.47
2022-08-22T16:57:19.358Z,2.10
2022-08-22T16:59:58.670Z,3.00
2022-08-22T17:02:34.066Z,5.68
2022-08-22T17:05:05.163Z,5.03
2022-08-22T17:07:35.754Z,7.07
2022-08-22T17:10:11.632Z,6.25
2022-08-22T17:12:44.633Z,5.78
2022-08-22T17:15:14.952Z,4.97
2022-08-22T17:17:47.226Z,4.07
2022-08-22T17:20:18.660Z,4.03
2022-08-22T17:22:49.222Z,3.38
2022-08-22T17:25:20.104Z,4.05
2022-08-22T17:27:48.284Z,4.03
2022-08-22T17:30:16.083Z,4.50
2022-08-22T17:32:58.990Z,3.95
2022-08-22T17:35:32.883Z,4.20
2022-08-22T17:38:03.232Z,4.60
2022-08-22T17:40:32.969Z,3.75
2022-08-22T17:43:04.425Z,3.80
2022-08-22T17:45:34.425Z,3.28
2022-08-22T17:48:03.626Z,3.30
2022-08-22T17:50:32.349Z,3.60
2022-08-22T17:53:00.834Z,2.88
2022-08-22T17:55:28.995Z,3.03
2022-08-22T17:57:56.889Z,2.97
2022-08-22T18:00:26.032Z,2.85
2022-08-22T18:02:54.845Z,2.83
2022-08-22T18:05:24.842Z,2.47
2022-08-22T18:07:54.661Z,3.00
2022-08-22T18:10:32.800Z,3.13
2022-08-22T18:13:06.233Z,2.97
2022-08-22T18:15:35.162Z,3.03
2022-08-22T18:18:03.439Z,2.47
2022-08-22T18:20:34.125Z,2.55
2022-08-22T18:23:01.946Z,2.75
2022-08-22T18:25:31.831Z,2.92
2022-08-22T18:28:00.301Z,2.83
2022-08-22T18:30:28.703Z,2.78
2022-08-22T18:32:57.712Z,2.70
2022-08-22T18:35:26.206Z,2.63
2022-08-22T18:37:59.016Z,2.78
2022-08-22T18:40:28.589Z,3.17
2022-08-22T18:42:56.910Z,2.60
2022-08-22T18:45:44.026Z,2.85
2022-08-22T18:48:17.751Z,2.90
2022-08-22T18:50:45.115Z,3.08
2022-08-22T18:53:26.213Z,2.60
2022-08-22T18:55:54.169Z,2.47
2022-08-22T18:58:33.115Z,2.80
2022-08-22T19:01:16.286Z,3.80
2022-08-22T19:03:51.208Z,2.55
2022-08-22T19:06:25.932Z,2.67
2022-08-22T19:09:07.592Z,2.90
2022-08-22T19:11:38.674Z,2.83
2022-08-22T19:14:09.595Z,2.28
2022-08-22T19:16:57.737Z,2.70
2022-08-22T19:19:54.716Z,2.72
2022-08-22T19:22:22.391Z,2.88
2022-08-22T19:25:04.914Z,2.80
2022-08-22T19:27:36.352Z,2.70
2022-08-22T19:30:05.168Z,2.53
2022-08-22T19:32:51.272Z,2.80
2022-08-22T19:35:20.085Z,2.70
2022-08-22T19:37:51.344Z,3.13
2022-08-22T19:40:40.585Z,2.65
2022-08-22T19:43:19.214Z,2.80
2022-08-22T19:45:46.575Z,2.90
2022-08-22T19:48:15.487Z,2.60
2022-08-22T19:50:42.929Z,2.90
2022-08-22T19:53:15.446Z,2.67
2022-08-22T19:55:47.251Z,3.00
2022-08-22T19:58:16.380Z,3.00
2022-08-22T20:00:48.372Z,2.90
2022-08-22T20:03:20.632Z,3.10
2022-08-22T20:05:56.575Z,2.90
2022-08-22T20:08:27.689Z,3.20
2022-08-22T20:10:58.623Z,2.92
2022-08-22T20:13:26.516Z,3.42
2022-08-22T20:16:04.518Z,3.30
2022-08-22T20:19:01.947Z,3.22
2022-08-22T20:21:57.876Z,2.80
2022-08-22T20:24:27.228Z,2.80
2022-08-22T20:27:14.348Z,2.72
2022-08-22T20:29:44.257Z,2.70
2022-08-22T20:32:11.659Z,2.60
2022-08-22T20:34:39.306Z,2.40
2022-08-22T20:37:27.199Z,2.78
2022-08-22T20:39:58.735Z,2.50
2022-08-22T20:42:27.755Z,3.17
2022-08-22T20:44:55.851Z,3.13
2022-08-22T20:47:23.915Z,2.92
2022-08-22T20:49:52.440Z,2.85
2022-08-22T20:52:23.556Z,2.50
2022-08-22T20:54:58.819Z,3.15
2022-08-22T20:57:26.217Z,2.97
2022-08-22T20:59:55.591Z,2.60
2022-08-22T21:02:24.060Z,2.67
2022-08-22T21:04:52.883Z,2.70
2022-08-22T21:07:24.231Z,3.22
2022-08-22T21:10:12.074Z,3.17
2022-08-22T21:12:39.413Z,2.88
2022-08-22T21:15:08.850Z,2.80
2022-08-22T21:17:39.256Z,3.05
2022-08-22T21:20:16.597Z,2.95
2022-08-22T21:22:43.935Z,3.00
2022-08-22T21:25:11.271Z,3.20
2022-08-22T21:27:38.657Z,2.95
2022-08-22T21:30:06.942Z,2.95
2022-08-22T21:32:35.998Z,2.90
2022-08-22T21:35:03.846Z,4.40
2022-08-22T21:37:35.168Z,5.95
2022-08-22T21:40:03.906Z,4.05
2022-08-22T21:42:32.243Z,4.03
2022-08-22T21:45:00.416Z,3.55
2022-08-22T21:47:31.193Z,3.47
2022-08-22T21:50:01.019Z,3.75
2022-08-22T21:52:28.492Z,3.40
2022-08-22T21:54:55.869Z,2.63
2022-08-22T21:57:34.512Z,3.00
2022-08-22T22:00:02.021Z,2.78
2022-08-22T22:02:31.088Z,3.03
2022-08-22T22:04:59.110Z,2.95
2022-08-22T22:07:28.202Z,3.20
2022-08-22T22:09:55.582Z,3.00
2022-08-22T22:12:23.004Z,2.90
2022-08-22T22:14:50.368Z,3.78
2022-08-22T22:17:17.751Z,3.30
2022-08-22T22:19:45.127Z,3.75
2022-08-22T22:22:12.494Z,3.17
2022-08-22T22:24:41.204Z,2.90
2022-08-22T22:27:08.577Z,3.38
2022-08-22T22:29:35.991Z,3.05
2022-08-22T22:32:03.638Z,3.17
2022-08-22T22:34:31.000Z,3.33
2022-08-22T22:36:58.369Z,3.00
2022-08-22T22:39:25.727Z,2.90
2022-08-22T22:41:54.432Z,3.28
2022-08-22T22:44:22.232Z,3.25
2022-08-22T22:46:49.719Z,3.60
2022-08-22T22:49:17.077Z,2.90
2022-08-22T22:51:44.446Z,3.30
2022-08-22T22:54:12.251Z,3.10
2022-08-22T22:56:41.832Z,2.80
2022-08-22T22:59:13.619Z,2.97
2022-08-22T23:01:56.938Z,3.20
2022-08-22T23:04:24.331Z,3.42
2022-08-22T23:06:51.660Z,3.10
2022-08-22T23:09:19.029Z,3.20
2022-08-22T23:11:46.442Z,3.42
2022-08-22T23:14:15.164Z,2.80
2022-08-22T23:16:44.398Z,3.20
2022-08-22T23:19:11.859Z,3.35
2022-08-22T23:21:39.375Z,3.30
2022-08-22T23:24:06.765Z,4.13
2022-08-22T23:26:34.131Z,3.38
2022-08-22T23:29:03.447Z,3.05
2022-08-22T23:31:32.510Z,3.17
2022-08-22T23:34:01.241Z,3.20
2022-08-22T23:36:29.526Z,3.45
2022-08-22T23:38:56.933Z,2.90
2022-08-22T23:41:24.373Z,2.90
2022-08-22T23:43:52.192Z,3.35
2022-08-22T23:46:20.006Z,3.40
2022-08-22T23:48:48.783Z,3.47
2022-08-22T23:51:17.302Z,3.45
2022-08-22T23:53:50.357Z,3.22
2022-08-22T23:56:19.541Z,3.28
2022-08-22T23:58:47.537Z,3.65
